DLH36P EDDF-LFMN
Flight info
| Callsign | DLH36P |
|---|---|
| Flight time | 1h 12m |
| Altitude | 39000 |
| Route | ANEKI2L/18 ANEKI Y163 NATOR DCT TRA DCT RIPUS DCT GERSA DCT SOSON DCT ODINA DCT ENOBA Z185 BORDI |
| Aircraft | A359/H-SDE2E3GHIJ3J4J5LM1ORWXY/LB1D1 |
Departure
| Time | 2026-04-15 15:22 |
|---|---|
| Airport | Frankfurt Main Airport (EDDF) |
Arrival
| Time | 2026-04-15 16:34 |
|---|---|
| Airport | Nice-Côte d'Azur Airport (LFMN) |
| Time | Latitude | Longitude | Altitude | Speed | Heading |
|---|---|---|---|---|---|
| 2026-04-15 14:30 | 50.04703 | 8.56850 | 362 ft | 0 kts | 294° |
| 2026-04-15 15:08 | 50.04701 | 8.56856 | 368 ft | 3 kts | 294° |
| 2026-04-15 15:09 | 50.04690 | 8.56894 | 368 ft | 4 kts | 295° |
| 2026-04-15 15:09 | 50.04681 | 8.56931 | 367 ft | 4 kts | 264° |
| 2026-04-15 15:09 | 50.04692 | 8.56961 | 369 ft | 4 kts | 208° |
| 2026-04-15 15:09 | 50.04693 | 8.56963 | 369 ft | 4 kts | 204° |
| 2026-04-15 15:10 | 50.04669 | 8.56945 | 371 ft | 4 kts | 204° |
| 2026-04-15 15:10 | 50.04660 | 8.56939 | 371 ft | 0 kts | 204° |
| 2026-04-15 15:15 | 50.04645 | 8.56930 | 366 ft | 4 kts | 200° |
| 2026-04-15 15:15 | 50.04610 | 8.56913 | 367 ft | 7 kts | 195° |
| 2026-04-15 15:15 | 50.04561 | 8.56893 | 367 ft | 6 kts | 194° |
| 2026-04-15 15:15 | 50.04512 | 8.56875 | 367 ft | 9 kts | 193° |
| 2026-04-15 15:16 | 50.04457 | 8.56820 | 373 ft | 11 kts | 228° |
| 2026-04-15 15:16 | 50.04421 | 8.56699 | 366 ft | 14 kts | 249° |
| 2026-04-15 15:16 | 50.04382 | 8.56535 | 371 ft | 18 kts | 249° |
| 2026-04-15 15:16 | 50.04335 | 8.56336 | 370 ft | 21 kts | 249° |
| 2026-04-15 15:17 | 50.04280 | 8.56108 | 366 ft | 24 kts | 249° |
| 2026-04-15 15:17 | 50.04218 | 8.55851 | 364 ft | 27 kts | 250° |
| 2026-04-15 15:17 | 50.04157 | 8.55595 | 366 ft | 23 kts | 249° |
| 2026-04-15 15:17 | 50.04097 | 8.55347 | 363 ft | 25 kts | 249° |
| 2026-04-15 15:18 | 50.04034 | 8.55085 | 365 ft | 27 kts | 250° |
| 2026-04-15 15:18 | 50.03971 | 8.54819 | 366 ft | 26 kts | 249° |
| 2026-04-15 15:18 | 50.03904 | 8.54538 | 362 ft | 29 kts | 249° |
| 2026-04-15 15:18 | 50.03841 | 8.54327 | 361 ft | 20 kts | 234° |
| 2026-04-15 15:19 | 50.03775 | 8.54116 | 354 ft | 23 kts | 249° |
| 2026-04-15 15:19 | 50.03715 | 8.53868 | 359 ft | 26 kts | 250° |
| 2026-04-15 15:19 | 50.03655 | 8.53620 | 353 ft | 18 kts | 248° |
| 2026-04-15 15:19 | 50.03607 | 8.53429 | 354 ft | 22 kts | 250° |
| 2026-04-15 15:20 | 50.03552 | 8.53198 | 347 ft | 21 kts | 249° |
| 2026-04-15 15:20 | 50.03498 | 8.52978 | 355 ft | 23 kts | 249° |
| 2026-04-15 15:20 | 50.03439 | 8.52745 | 353 ft | 24 kts | 248° |
| 2026-04-15 15:20 | 50.03369 | 8.52603 | 350 ft | 15 kts | 202° |
| 2026-04-15 15:21 | 50.03309 | 8.52595 | 348 ft | 0 kts | 180° |
| 2026-04-15 15:21 | 50.03235 | 8.52595 | 348 ft | 43 kts | 179° |
| 2026-04-15 15:21 | 50.02667 | 8.52601 | 352 ft | 118 kts | 180° |
| 2026-04-15 15:21 | 50.01634 | 8.52613 | 412 ft | 172 kts | 179° |
| 2026-04-15 15:22 | 50.00437 | 8.52652 | 1275 ft | 167 kts | 178° |
| 2026-04-15 15:22 | 49.99278 | 8.52675 | 2034 ft | 167 kts | 180° |
| 2026-04-15 15:22 | 49.98076 | 8.52680 | 2458 ft | 179 kts | 179° |
| 2026-04-15 15:22 | 49.96743 | 8.52717 | 2708 ft | 204 kts | 179° |
| 2026-04-15 15:23 | 49.95237 | 8.52779 | 2947 ft | 230 kts | 178° |
| 2026-04-15 15:23 | 49.93572 | 8.52911 | 3393 ft | 245 kts | 176° |
| 2026-04-15 15:23 | 49.91911 | 8.53118 | 4380 ft | 234 kts | 175° |
| 2026-04-15 15:23 | 49.90319 | 8.53369 | 5356 ft | 227 kts | 174° |
| 2026-04-15 15:24 | 49.88732 | 8.53567 | 6079 ft | 230 kts | 179° |
| 2026-04-15 15:24 | 49.87121 | 8.53495 | 6782 ft | 233 kts | 184° |
| 2026-04-15 15:24 | 49.85493 | 8.53399 | 7467 ft | 235 kts | 181° |
| 2026-04-15 15:24 | 49.83854 | 8.53473 | 8125 ft | 238 kts | 176° |
| 2026-04-15 15:25 | 49.82184 | 8.53699 | 8762 ft | 243 kts | 176° |
| 2026-04-15 15:25 | 49.80491 | 8.53846 | 9444 ft | 245 kts | 179° |
| 2026-04-15 15:25 | 49.78782 | 8.53957 | 10112 ft | 247 kts | 179° |
| 2026-04-15 15:25 | 49.77053 | 8.54039 | 10714 ft | 250 kts | 182° |
| 2026-04-15 15:26 | 49.75285 | 8.53925 | 11148 ft | 260 kts | 186° |
| 2026-04-15 15:26 | 49.73440 | 8.53579 | 11508 ft | 274 kts | 191° |
| 2026-04-15 15:26 | 49.71528 | 8.53011 | 11873 ft | 287 kts | 193° |
| 2026-04-15 15:26 | 49.69486 | 8.52675 | 12163 ft | 304 kts | 185° |
| 2026-04-15 15:27 | 49.67322 | 8.52504 | 12444 ft | 319 kts | 185° |
| 2026-04-15 15:27 | 49.65059 | 8.52295 | 12711 ft | 333 kts | 185° |
| 2026-04-15 15:27 | 49.62701 | 8.52037 | 12967 ft | 346 kts | 186° |
| 2026-04-15 15:27 | 49.60267 | 8.51744 | 13307 ft | 355 kts | 186° |
| 2026-04-15 15:28 | 49.57787 | 8.51433 | 13791 ft | 359 kts | 186° |
| 2026-04-15 15:28 | 49.55282 | 8.51113 | 14276 ft | 363 kts | 186° |
| 2026-04-15 15:28 | 49.52759 | 8.50786 | 14734 ft | 366 kts | 186° |
| 2026-04-15 15:28 | 49.50209 | 8.50454 | 15204 ft | 369 kts | 186° |
| 2026-04-15 15:29 | 49.47644 | 8.50119 | 15655 ft | 372 kts | 186° |
| 2026-04-15 15:29 | 49.45053 | 8.49781 | 16135 ft | 375 kts | 186° |
| 2026-04-15 15:29 | 49.42444 | 8.49440 | 16595 ft | 378 kts | 186° |
| 2026-04-15 15:29 | 49.39810 | 8.49096 | 17033 ft | 381 kts | 186° |
| 2026-04-15 15:30 | 49.37153 | 8.48749 | 17487 ft | 384 kts | 186° |
| 2026-04-15 15:30 | 49.34481 | 8.48400 | 17958 ft | 387 kts | 187° |
| 2026-04-15 15:30 | 49.31821 | 8.48054 | 18401 ft | 390 kts | 187° |
| 2026-04-15 15:30 | 49.29071 | 8.47696 | 18786 ft | 393 kts | 187° |
| 2026-04-15 15:31 | 49.26338 | 8.47345 | 19164 ft | 396 kts | 186° |
| 2026-04-15 15:31 | 49.23585 | 8.46989 | 19562 ft | 398 kts | 187° |
| 2026-04-15 15:31 | 49.20819 | 8.46629 | 19939 ft | 400 kts | 186° |
| 2026-04-15 15:31 | 49.18028 | 8.46264 | 20287 ft | 404 kts | 186° |
| 2026-04-15 15:32 | 49.15259 | 8.45902 | 20661 ft | 406 kts | 186° |
| 2026-04-15 15:32 | 49.12438 | 8.45535 | 21031 ft | 409 kts | 186° |
| 2026-04-15 15:32 | 49.09593 | 8.45165 | 21400 ft | 411 kts | 186° |
| 2026-04-15 15:32 | 49.06850 | 8.44707 | 21745 ft | 412 kts | 191° |
| 2026-04-15 15:33 | 49.03936 | 8.43877 | 22121 ft | 414 kts | 193° |
| 2026-04-15 15:33 | 49.01110 | 8.42966 | 22482 ft | 416 kts | 194° |
| 2026-04-15 15:33 | 48.98279 | 8.41996 | 22813 ft | 419 kts | 194° |
| 2026-04-15 15:33 | 48.95430 | 8.40993 | 23121 ft | 422 kts | 195° |
| 2026-04-15 15:34 | 48.92561 | 8.39977 | 23471 ft | 424 kts | 195° |
| 2026-04-15 15:34 | 48.89683 | 8.38961 | 23821 ft | 426 kts | 194° |
| 2026-04-15 15:34 | 48.86785 | 8.37945 | 24099 ft | 429 kts | 194° |
| 2026-04-15 15:34 | 48.83874 | 8.36931 | 24390 ft | 431 kts | 194° |
| 2026-04-15 15:35 | 48.80941 | 8.35913 | 24672 ft | 433 kts | 194° |
| 2026-04-15 15:35 | 48.77992 | 8.34894 | 24969 ft | 436 kts | 194° |
| 2026-04-15 15:35 | 48.75032 | 8.33851 | 25222 ft | 439 kts | 195° |
| 2026-04-15 15:35 | 48.72054 | 8.32763 | 25475 ft | 442 kts | 195° |
| 2026-04-15 15:36 | 48.69060 | 8.31655 | 25778 ft | 443 kts | 195° |
| 2026-04-15 15:36 | 48.66058 | 8.30543 | 26089 ft | 446 kts | 195° |
| 2026-04-15 15:36 | 48.63038 | 8.29431 | 26403 ft | 448 kts | 195° |
| 2026-04-15 15:36 | 48.60003 | 8.28320 | 26715 ft | 450 kts | 195° |
| 2026-04-15 15:37 | 48.56945 | 8.27207 | 27053 ft | 453 kts | 195° |
| 2026-04-15 15:37 | 48.53872 | 8.26092 | 27395 ft | 456 kts | 195° |
| 2026-04-15 15:37 | 48.50744 | 8.25221 | 27739 ft | 460 kts | 188° |
| 2026-04-15 15:37 | 48.47532 | 8.25024 | 28086 ft | 465 kts | 179° |
| 2026-04-15 15:38 | 48.44299 | 8.25478 | 28452 ft | 468 kts | 174° |
| 2026-04-15 15:38 | 48.41061 | 8.26157 | 28810 ft | 471 kts | 172° |
| 2026-04-15 15:38 | 48.37814 | 8.26943 | 29169 ft | 475 kts | 172° |
| 2026-04-15 15:38 | 48.34543 | 8.27776 | 29532 ft | 478 kts | 171° |
| 2026-04-15 15:39 | 48.31255 | 8.28618 | 29858 ft | 482 kts | 171° |
| 2026-04-15 15:39 | 48.27941 | 8.29455 | 30211 ft | 485 kts | 172° |
| 2026-04-15 15:39 | 48.24602 | 8.30284 | 30559 ft | 487 kts | 172° |
| 2026-04-15 15:39 | 48.21247 | 8.31103 | 30896 ft | 490 kts | 172° |
| 2026-04-15 15:40 | 48.17873 | 8.31919 | 31242 ft | 493 kts | 172° |
| 2026-04-15 15:40 | 48.14522 | 8.32725 | 31570 ft | 495 kts | 172° |
| 2026-04-15 15:40 | 48.11109 | 8.33549 | 31864 ft | 498 kts | 172° |
| 2026-04-15 15:40 | 48.07680 | 8.34379 | 32177 ft | 501 kts | 172° |
| 2026-04-15 15:41 | 48.04184 | 8.35225 | 32485 ft | 503 kts | 172° |
| 2026-04-15 15:41 | 48.00764 | 8.36053 | 32785 ft | 506 kts | 172° |
| 2026-04-15 15:41 | 47.97286 | 8.36894 | 33077 ft | 508 kts | 172° |
| 2026-04-15 15:41 | 47.93787 | 8.37738 | 33357 ft | 510 kts | 172° |
| 2026-04-15 15:42 | 47.90279 | 8.38583 | 33621 ft | 512 kts | 172° |
| 2026-04-15 15:42 | 47.86748 | 8.39432 | 33899 ft | 514 kts | 172° |
| 2026-04-15 15:42 | 47.83219 | 8.40280 | 34295 ft | 514 kts | 172° |
| 2026-04-15 15:42 | 47.79693 | 8.41126 | 34660 ft | 512 kts | 172° |
| 2026-04-15 15:43 | 47.76174 | 8.41969 | 35031 ft | 511 kts | 172° |
| 2026-04-15 15:43 | 47.72666 | 8.42808 | 35398 ft | 511 kts | 172° |
| 2026-04-15 15:43 | 47.69155 | 8.43646 | 35649 ft | 513 kts | 172° |
| 2026-04-15 15:43 | 47.65621 | 8.44418 | 35860 ft | 515 kts | 174° |
| 2026-04-15 15:44 | 47.62061 | 8.44985 | 36217 ft | 514 kts | 175° |
| 2026-04-15 15:44 | 47.58506 | 8.45452 | 36620 ft | 512 kts | 176° |
| 2026-04-15 15:44 | 47.54960 | 8.45895 | 37007 ft | 511 kts | 176° |
| 2026-04-15 15:44 | 47.51421 | 8.46349 | 37357 ft | 511 kts | 175° |
| 2026-04-15 15:45 | 47.47884 | 8.46824 | 37706 ft | 510 kts | 175° |
| 2026-04-15 15:45 | 47.44352 | 8.47319 | 38033 ft | 509 kts | 175° |
| 2026-04-15 15:45 | 47.40824 | 8.47828 | 38352 ft | 509 kts | 175° |
| 2026-04-15 15:45 | 47.37306 | 8.48342 | 38694 ft | 508 kts | 175° |
| 2026-04-15 15:46 | 47.34977 | 8.48684 | 38913 ft | 508 kts | 175° |
| 2026-04-15 15:46 | 47.31462 | 8.49200 | 39146 ft | 508 kts | 175° |
| 2026-04-15 15:46 | 47.24433 | 8.50230 | 39212 ft | 507 kts | 175° |
| 2026-04-15 15:47 | 47.17405 | 8.51260 | 39205 ft | 508 kts | 175° |
| 2026-04-15 15:47 | 47.10373 | 8.52280 | 39206 ft | 508 kts | 175° |
| 2026-04-15 15:48 | 47.03340 | 8.53297 | 39202 ft | 508 kts | 175° |
| 2026-04-15 15:48 | 46.96296 | 8.54320 | 39181 ft | 509 kts | 175° |
| 2026-04-15 15:49 | 46.89243 | 8.55332 | 39175 ft | 509 kts | 175° |
| 2026-04-15 15:49 | 46.82190 | 8.56341 | 39174 ft | 509 kts | 175° |
| 2026-04-15 15:50 | 46.75134 | 8.57349 | 39175 ft | 510 kts | 174° |
| 2026-04-15 15:50 | 46.68064 | 8.58356 | 39161 ft | 511 kts | 174° |
| 2026-04-15 15:51 | 46.60988 | 8.59369 | 39148 ft | 511 kts | 174° |
| 2026-04-15 15:51 | 46.53903 | 8.60382 | 39138 ft | 512 kts | 174° |
| 2026-04-15 15:52 | 46.46815 | 8.61382 | 39131 ft | 512 kts | 174° |
| 2026-04-15 15:52 | 46.39722 | 8.62382 | 39120 ft | 512 kts | 174° |
| 2026-04-15 15:53 | 46.32631 | 8.63380 | 39117 ft | 512 kts | 174° |
| 2026-04-15 15:53 | 46.25545 | 8.64375 | 39112 ft | 512 kts | 174° |
| 2026-04-15 15:54 | 46.18457 | 8.65369 | 39105 ft | 512 kts | 174° |
| 2026-04-15 15:54 | 46.11383 | 8.66244 | 39103 ft | 514 kts | 180° |
| 2026-04-15 15:55 | 46.04286 | 8.65311 | 39132 ft | 512 kts | 188° |
| 2026-04-15 15:55 | 45.97221 | 8.63880 | 39127 ft | 513 kts | 189° |
| 2026-04-15 15:56 | 45.90153 | 8.62377 | 39131 ft | 514 kts | 189° |
| 2026-04-15 15:56 | 45.83079 | 8.60908 | 39123 ft | 514 kts | 188° |
| 2026-04-15 15:57 | 45.75983 | 8.59463 | 39130 ft | 515 kts | 188° |
| 2026-04-15 15:57 | 45.68884 | 8.58029 | 39131 ft | 516 kts | 188° |
| 2026-04-15 15:58 | 45.61780 | 8.56597 | 39129 ft | 516 kts | 188° |
| 2026-04-15 15:58 | 45.54653 | 8.55163 | 39130 ft | 518 kts | 188° |
| 2026-04-15 15:59 | 45.47518 | 8.53730 | 39129 ft | 518 kts | 188° |
| 2026-04-15 15:59 | 45.40378 | 8.52300 | 39126 ft | 518 kts | 188° |
| 2026-04-15 16:00 | 45.33235 | 8.50873 | 39124 ft | 519 kts | 188° |
| 2026-04-15 16:00 | 45.26080 | 8.49447 | 39115 ft | 519 kts | 188° |
| 2026-04-15 16:01 | 45.18919 | 8.48024 | 39117 ft | 520 kts | 188° |
| 2026-04-15 16:01 | 45.15336 | 8.47313 | 38923 ft | 519 kts | 188° |
| 2026-04-15 16:01 | 45.11758 | 8.46604 | 38379 ft | 520 kts | 188° |
| 2026-04-15 16:02 | 45.08168 | 8.45894 | 37748 ft | 521 kts | 188° |
| 2026-04-15 16:02 | 45.04567 | 8.45182 | 37097 ft | 524 kts | 188° |
| 2026-04-15 16:02 | 45.00942 | 8.44466 | 36481 ft | 527 kts | 188° |
| 2026-04-15 16:02 | 44.97301 | 8.43748 | 35868 ft | 530 kts | 188° |
| 2026-04-15 16:03 | 44.93651 | 8.43030 | 35279 ft | 531 kts | 188° |
| 2026-04-15 16:03 | 44.89981 | 8.42309 | 34699 ft | 533 kts | 188° |
| 2026-04-15 16:03 | 44.86306 | 8.41587 | 34141 ft | 534 kts | 187° |
| 2026-04-15 16:03 | 44.82618 | 8.40864 | 33498 ft | 537 kts | 187° |
| 2026-04-15 16:04 | 44.78911 | 8.40139 | 32852 ft | 539 kts | 187° |
| 2026-04-15 16:04 | 44.75190 | 8.39411 | 32250 ft | 541 kts | 187° |
| 2026-04-15 16:04 | 44.71462 | 8.38683 | 31646 ft | 542 kts | 187° |
| 2026-04-15 16:04 | 44.67769 | 8.37962 | 31057 ft | 544 kts | 187° |
| 2026-04-15 16:05 | 44.64019 | 8.37232 | 30479 ft | 545 kts | 187° |
| 2026-04-15 16:05 | 44.60256 | 8.36500 | 29856 ft | 545 kts | 187° |
| 2026-04-15 16:05 | 44.56463 | 8.35763 | 29184 ft | 541 kts | 187° |
| 2026-04-15 16:05 | 44.52751 | 8.35042 | 28518 ft | 536 kts | 187° |
| 2026-04-15 16:06 | 44.49131 | 8.34339 | 27905 ft | 529 kts | 187° |
| 2026-04-15 16:06 | 44.45506 | 8.33637 | 27275 ft | 523 kts | 187° |
| 2026-04-15 16:06 | 44.41924 | 8.32944 | 26664 ft | 516 kts | 187° |
| 2026-04-15 16:06 | 44.38386 | 8.32261 | 26066 ft | 510 kts | 187° |
| 2026-04-15 16:07 | 44.34917 | 8.31468 | 25477 ft | 505 kts | 193° |
| 2026-04-15 16:07 | 44.31633 | 8.29843 | 24911 ft | 498 kts | 207° |
| 2026-04-15 16:07 | 44.26486 | 8.23750 | 23797 ft | 482 kts | 233° |
| 2026-04-15 16:08 | 44.24471 | 8.20045 | 23159 ft | 477 kts | 237° |
| 2026-04-15 16:08 | 44.22596 | 8.16270 | 22503 ft | 471 kts | 238° |
| 2026-04-15 16:08 | 44.20785 | 8.12490 | 21877 ft | 466 kts | 238° |
| 2026-04-15 16:08 | 44.19002 | 8.08757 | 21256 ft | 460 kts | 238° |
| 2026-04-15 16:09 | 44.17226 | 8.05075 | 20651 ft | 455 kts | 238° |
| 2026-04-15 16:09 | 44.15459 | 8.01459 | 20046 ft | 449 kts | 237° |
| 2026-04-15 16:09 | 44.13699 | 7.97898 | 19496 ft | 444 kts | 237° |
| 2026-04-15 16:09 | 44.11950 | 7.94387 | 18911 ft | 438 kts | 236° |
| 2026-04-15 16:10 | 44.10217 | 7.90926 | 18345 ft | 434 kts | 236° |
| 2026-04-15 16:10 | 44.08490 | 7.87491 | 17726 ft | 432 kts | 236° |
| 2026-04-15 16:10 | 44.06781 | 7.84094 | 17300 ft | 425 kts | 236° |
| 2026-04-15 16:10 | 44.05095 | 7.80741 | 17047 ft | 423 kts | 236° |
| 2026-04-15 16:11 | 44.03409 | 7.77393 | 16785 ft | 423 kts | 236° |
| 2026-04-15 16:11 | 44.01728 | 7.74059 | 16538 ft | 420 kts | 236° |
| 2026-04-15 16:11 | 44.00059 | 7.70750 | 16285 ft | 418 kts | 236° |
| 2026-04-15 16:11 | 43.98394 | 7.67444 | 16038 ft | 417 kts | 237° |
| 2026-04-15 16:12 | 43.96732 | 7.64144 | 15787 ft | 417 kts | 236° |
| 2026-04-15 16:12 | 43.95074 | 7.60861 | 15551 ft | 413 kts | 236° |
| 2026-04-15 16:12 | 43.93429 | 7.57610 | 15318 ft | 411 kts | 236° |
| 2026-04-15 16:12 | 43.91792 | 7.54377 | 15069 ft | 409 kts | 236° |
| 2026-04-15 16:13 | 43.90161 | 7.51160 | 14812 ft | 407 kts | 236° |
| 2026-04-15 16:13 | 43.88536 | 7.47955 | 14582 ft | 406 kts | 236° |
| 2026-04-15 16:13 | 43.86914 | 7.44765 | 14342 ft | 404 kts | 236° |
| 2026-04-15 16:13 | 43.85097 | 7.41806 | 14095 ft | 405 kts | 223° |
| 2026-04-15 16:14 | 43.82743 | 7.39714 | 13847 ft | 404 kts | 203° |
| 2026-04-15 16:14 | 43.80015 | 7.38848 | 13596 ft | 404 kts | 183° |
| 2026-04-15 16:14 | 43.77239 | 7.39294 | 13343 ft | 402 kts | 162° |
| 2026-04-15 16:14 | 43.74757 | 7.40970 | 13073 ft | 398 kts | 143° |
| 2026-04-15 16:15 | 43.72855 | 7.43595 | 12829 ft | 393 kts | 124° |
| 2026-04-15 16:15 | 43.71624 | 7.46993 | 12565 ft | 388 kts | 107° |
| 2026-04-15 16:15 | 43.70600 | 7.50390 | 12281 ft | 390 kts | 117° |
| 2026-04-15 16:15 | 43.68944 | 7.53354 | 12038 ft | 391 kts | 133° |
| 2026-04-15 16:16 | 43.67149 | 7.56225 | 11774 ft | 388 kts | 122° |
| 2026-04-15 16:16 | 43.66059 | 7.59532 | 11537 ft | 383 kts | 102° |
| 2026-04-15 16:16 | 43.65552 | 7.63116 | 11285 ft | 380 kts | 100° |
| 2026-04-15 16:16 | 43.64814 | 7.66629 | 11052 ft | 381 kts | 106° |
| 2026-04-15 16:17 | 43.63939 | 7.70126 | 10803 ft | 380 kts | 107° |
| 2026-04-15 16:17 | 43.63058 | 7.73557 | 10554 ft | 379 kts | 107° |
| 2026-04-15 16:17 | 43.62187 | 7.76932 | 10324 ft | 378 kts | 107° |
| 2026-04-15 16:17 | 43.61294 | 7.80385 | 10094 ft | 377 kts | 107° |
| 2026-04-15 16:18 | 43.60438 | 7.83688 | 9872 ft | 357 kts | 107° |
| 2026-04-15 16:18 | 43.59640 | 7.86749 | 9729 ft | 322 kts | 107° |
| 2026-04-15 16:18 | 43.58918 | 7.89521 | 9574 ft | 293 kts | 107° |
| 2026-04-15 16:18 | 43.58239 | 7.92138 | 9459 ft | 292 kts | 107° |
| 2026-04-15 16:19 | 43.57558 | 7.94776 | 9333 ft | 292 kts | 107° |
| 2026-04-15 16:19 | 43.56876 | 7.97406 | 9204 ft | 292 kts | 107° |
| 2026-04-15 16:19 | 43.56193 | 8.00031 | 9070 ft | 290 kts | 107° |
| 2026-04-15 16:19 | 43.55512 | 8.02644 | 8841 ft | 288 kts | 107° |
| 2026-04-15 16:20 | 43.54834 | 8.05241 | 8583 ft | 287 kts | 107° |
| 2026-04-15 16:20 | 43.54106 | 8.07798 | 8337 ft | 287 kts | 113° |
| 2026-04-15 16:20 | 43.52902 | 8.09990 | 8076 ft | 290 kts | 137° |
| 2026-04-15 16:20 | 43.51123 | 8.11292 | 7831 ft | 293 kts | 164° |
| 2026-04-15 16:21 | 43.49095 | 8.11389 | 7584 ft | 294 kts | 191° |
| 2026-04-15 16:21 | 43.47240 | 8.10268 | 7337 ft | 293 kts | 218° |
| 2026-04-15 16:21 | 43.45925 | 8.08179 | 7098 ft | 289 kts | 244° |
| 2026-04-15 16:21 | 43.45175 | 8.05637 | 6866 ft | 286 kts | 253° |
| 2026-04-15 16:22 | 43.44403 | 8.03111 | 6667 ft | 287 kts | 242° |
| 2026-04-15 16:22 | 43.43673 | 8.00575 | 6654 ft | 285 kts | 264° |
| 2026-04-15 16:22 | 43.43783 | 7.97910 | 6507 ft | 277 kts | 287° |
| 2026-04-15 16:22 | 43.44326 | 7.95381 | 6260 ft | 275 kts | 290° |
| 2026-04-15 16:23 | 43.44917 | 7.92890 | 5995 ft | 274 kts | 290° |
| 2026-04-15 16:23 | 43.45502 | 7.90392 | 5736 ft | 274 kts | 290° |
| 2026-04-15 16:23 | 43.46074 | 7.87886 | 5494 ft | 275 kts | 290° |
| 2026-04-15 16:23 | 43.46640 | 7.85374 | 5244 ft | 275 kts | 290° |
| 2026-04-15 16:24 | 43.47202 | 7.82860 | 5032 ft | 275 kts | 290° |
| 2026-04-15 16:24 | 43.47764 | 7.80336 | 4903 ft | 276 kts | 290° |
| 2026-04-15 16:24 | 43.48325 | 7.77808 | 4788 ft | 276 kts | 290° |
| 2026-04-15 16:24 | 43.48884 | 7.75282 | 4658 ft | 276 kts | 290° |
| 2026-04-15 16:25 | 43.49442 | 7.72757 | 4528 ft | 276 kts | 290° |
| 2026-04-15 16:25 | 43.50001 | 7.70226 | 4403 ft | 276 kts | 289° |
| 2026-04-15 16:25 | 43.50518 | 7.67679 | 4271 ft | 277 kts | 284° |
| 2026-04-15 16:25 | 43.50625 | 7.65020 | 4151 ft | 279 kts | 269° |
| 2026-04-15 16:26 | 43.50497 | 7.62345 | 4027 ft | 280 kts | 267° |
| 2026-04-15 16:26 | 43.50341 | 7.59675 | 3899 ft | 280 kts | 267° |
| 2026-04-15 16:26 | 43.50190 | 7.57013 | 3782 ft | 277 kts | 265° |
| 2026-04-15 16:26 | 43.50154 | 7.54405 | 3644 ft | 272 kts | 277° |
| 2026-04-15 16:27 | 43.50822 | 7.52054 | 3526 ft | 259 kts | 309° |
| 2026-04-15 16:27 | 43.52191 | 7.50607 | 3390 ft | 243 kts | 340° |
| 2026-04-15 16:27 | 43.53774 | 7.50033 | 3261 ft | 230 kts | 352° |
| 2026-04-15 16:27 | 43.55314 | 7.49674 | 3125 ft | 220 kts | 353° |
| 2026-04-15 16:28 | 43.56792 | 7.49333 | 3001 ft | 212 kts | 352° |
| 2026-04-15 16:28 | 43.58162 | 7.48567 | 2946 ft | 217 kts | 325° |
| 2026-04-15 16:28 | 43.59177 | 7.47062 | 2872 ft | 217 kts | 305° |
| 2026-04-15 16:28 | 43.60038 | 7.45365 | 2769 ft | 214 kts | 304° |
| 2026-04-15 16:29 | 43.60864 | 7.43698 | 2665 ft | 206 kts | 304° |
| 2026-04-15 16:29 | 43.61652 | 7.42117 | 2607 ft | 196 kts | 304° |
| 2026-04-15 16:29 | 43.62406 | 7.40614 | 2537 ft | 183 kts | 304° |
| 2026-04-15 16:29 | 43.63112 | 7.39216 | 2395 ft | 173 kts | 304° |
| 2026-04-15 16:30 | 43.63786 | 7.37903 | 2241 ft | 163 kts | 304° |
| 2026-04-15 16:30 | 43.64424 | 7.36645 | 2050 ft | 157 kts | 303° |
| 2026-04-15 16:30 | 43.65042 | 7.35419 | 2001 ft | 155 kts | 302° |
| 2026-04-15 16:30 | 43.65653 | 7.34215 | 1961 ft | 151 kts | 303° |
| 2026-04-15 16:31 | 43.66241 | 7.33059 | 1734 ft | 144 kts | 303° |
| 2026-04-15 16:31 | 43.66805 | 7.31953 | 1473 ft | 137 kts | 303° |
| 2026-04-15 16:31 | 43.67348 | 7.30887 | 1247 ft | 135 kts | 302° |
| 2026-04-15 16:31 | 43.67884 | 7.29830 | 1038 ft | 133 kts | 302° |
| 2026-04-15 16:32 | 43.68407 | 7.28791 | 969 ft | 133 kts | 300° |
| 2026-04-15 16:32 | 43.68733 | 7.28079 | 853 ft | 131 kts | 296° |
| 2026-04-15 16:32 | 43.69033 | 7.26926 | 827 ft | 130 kts | 273° |
| 2026-04-15 16:32 | 43.68819 | 7.25732 | 742 ft | 129 kts | 240° |
| 2026-04-15 16:33 | 43.68282 | 7.24711 | 543 ft | 131 kts | 231° |
| 2026-04-15 16:33 | 43.67666 | 7.23820 | 324 ft | 125 kts | 219° |
| 2026-04-15 16:33 | 43.67043 | 7.22982 | 139 ft | 125 kts | 224° |
| 2026-04-15 16:33 | 43.66434 | 7.22129 | 30 ft | 120 kts | 226° |
| 2026-04-15 16:34 | 43.65956 | 7.21471 | 27 ft | 62 kts | 225° |
| 2026-04-15 16:34 | 43.65720 | 7.21145 | 29 ft | 32 kts | 225° |
| 2026-04-15 16:34 | 43.65628 | 7.20985 | 29 ft | 17 kts | 263° |
| 2026-04-15 16:34 | 43.65696 | 7.20889 | 27 ft | 10 kts | 347° |
| 2026-04-15 16:35 | 43.65703 | 7.20887 | 27 ft | 0 kts | 348° |
| 2026-04-15 16:36 | 43.65731 | 7.20879 | 27 ft | 9 kts | 348° |
| 2026-04-15 16:36 | 43.65804 | 7.20861 | 27 ft | 13 kts | 351° |
| 2026-04-15 16:36 | 43.65896 | 7.20842 | 27 ft | 9 kts | 351° |
| 2026-04-15 16:37 | 43.65942 | 7.20809 | 27 ft | 8 kts | 292° |
| 2026-04-15 16:37 | 43.65952 | 7.20752 | 27 ft | 2 kts | 281° |
| 2026-04-15 16:37 | 43.65953 | 7.20745 | 27 ft | 0 kts | 281° |